Time;durP1;ratioP1;P1;durP2;ratioP2;P2;SDS_P1;SDS_P2;PMS_P1;PMS_P2;Temp;Humidity;BMP_temperature;BMP_pressure;BME280_temperature;BME280_humidity;BME280_pressure;Samples;Min_cycle;Max_cycle;Signal;HPM_P1;HPM_P2
2022/03/15 00:00:06;;;;;;;;;;;20.90;27.20;;;;;;450479;262;1071;-60
2022/03/15 00:02:08;;;;;;;;;;;21.00;27.10;;;;;;450446;262;1019;-60
2022/03/15 00:04:09;;;;;;;;;;;21.00;27.20;;;;;;450448;263;1117;-60
2022/03/15 00:06:10;;;;;;;;;;;21.00;27.10;;;;;;450451;263;1057;-60
2022/03/15 00:08:12;;;;;;;;;;;20.90;27.10;;;;;;450503;262;1057;-60
2022/03/15 00:10:13;;;;;;;;;;;20.90;27.30;;;;;;450480;263;1011;-60
2022/03/15 00:12:14;;;;;;;;;;;20.90;27.20;;;;;;450432;262;2210;-60
2022/03/15 00:14:18;;;;;;;;;;;21.00;27.20;;;;;;450486;262;1190;-60
2022/03/15 00:16:17;;;;;;;;;;;21.00;27.10;;;;;;450433;263;1440;-59
2022/03/15 00:18:20;;;;;;;;;;;20.80;27.20;;;;;;450515;262;992;-60
2022/03/15 00:20:22;;;;;;;;;;;20.90;27.20;;;;;;450530;262;1384;-60
2022/03/15 00:22:22;;;;;;;;;;;21.00;27.10;;;;;;450505;262;1379;-60
2022/03/15 00:24:22;;;;;;;;;;;21.00;27.20;;;;;;450480;262;1478;-60
2022/03/15 00:26:24;;;;;;;;;;;21.00;27.10;;;;;;450398;263;1048;-60
2022/03/15 00:28:25;;;;;;;;;;;21.00;27.10;;;;;;450445;262;1250;-60
2022/03/15 00:30:26;;;;;;;;;;;20.90;27.10;;;;;;450479;262;1254;-60
2022/03/15 00:32:28;;;;;;;;;;;21.00;27.10;;;;;;450448;262;2230;-59
2022/03/15 00:34:29;;;;;;;;;;;20.90;27.20;;;;;;450527;262;1103;-60
2022/03/15 00:36:30;;;;;;;;;;;21.00;27.20;;;;;;450593;262;1060;-60
2022/03/15 00:38:32;;;;;;;;;;;21.00;27.10;;;;;;450427;262;1348;-59
2022/03/15 00:40:33;;;;;;;;;;;21.10;27.10;;;;;;450358;263;1165;-60
2022/03/15 00:42:34;;;;;;;;;;;21.10;27.20;;;;;;450384;262;1109;-60
2022/03/15 00:44:36;;;;;;;;;;;21.00;27.20;;;;;;450465;262;1215;-59
2022/03/15 00:46:37;;;;;;;;;;;21.00;27.30;;;;;;450448;262;1079;-62
2022/03/15 00:48:38;;;;;;;;;;;20.90;27.30;;;;;;450404;263;1147;-60
2022/03/15 00:50:41;;;;;;;;;;;20.90;27.40;;;;;;450648;262;1096;-60
2022/03/15 00:52:41;;;;;;;;;;;20.90;27.40;;;;;;450438;263;2211;-59
2022/03/15 00:54:42;;;;;;;;;;;21.00;27.40;;;;;;450414;263;1085;-59
2022/03/15 00:56:44;;;;;;;;;;;20.90;27.40;;;;;;450631;262;971;-60
2022/03/15 00:58:45;;;;;;;;;;;20.90;27.50;;;;;;450463;263;1174;-59
2022/03/15 01:00:48;;;;;;;;;;;21.00;27.30;;;;;;450468;263;1007;-60
2022/03/15 01:02:49;;;;;;;;;;;20.90;27.50;;;;;;450523;262;2219;-60
2022/03/15 01:04:50;;;;;;;;;;;21.00;27.40;;;;;;450438;262;2391;-60
2022/03/15 01:06:51;;;;;;;;;;;20.90;27.50;;;;;;450400;262;1103;-60
2022/03/15 01:08:52;;;;;;;;;;;21.00;27.40;;;;;;450417;262;1079;-60
2022/03/15 01:10:54;;;;;;;;;;;21.10;27.50;;;;;;450331;263;1059;-60
2022/03/15 01:12:55;;;;;;;;;;;21.00;27.50;;;;;;450445;262;2135;-60
2022/03/15 01:14:56;;;;;;;;;;;20.90;27.60;;;;;;450458;263;1214;-60
2022/03/15 01:16:57;;;;;;;;;;;21.00;27.50;;;;;;450428;262;1131;-59
2022/03/15 01:18:59;;;;;;;;;;;20.90;27.60;;;;;;450511;262;1012;-60
2022/03/15 01:21:00;;;;;;;;;;;21.00;27.50;;;;;;450429;263;1100;-60
2022/03/15 01:23:02;;;;;;;;;;;21.00;27.50;;;;;;450516;262;1119;-59
2022/03/15 01:25:03;;;;;;;;;;;21.00;27.50;;;;;;450453;263;1122;-60
2022/03/15 01:27:04;;;;;;;;;;;21.10;27.50;;;;;;450399;262;1098;-60
2022/03/15 01:29:05;;;;;;;;;;;21.10;27.50;;;;;;450451;263;1191;-60
2022/03/15 01:31:07;;;;;;;;;;;21.00;27.60;;;;;;450390;263;1008;-60
2022/03/15 01:33:08;;;;;;;;;;;21.00;27.50;;;;;;450414;262;2209;-60
2022/03/15 01:35:10;;;;;;;;;;;21.00;27.50;;;;;;450384;263;1069;-60
2022/03/15 01:37:11;;;;;;;;;;;21.10;27.40;;;;;;450364;263;1087;-60
2022/03/15 01:39:12;;;;;;;;;;;21.10;27.50;;;;;;450427;262;966;-60
2022/03/15 01:41:14;;;;;;;;;;;21.10;27.50;;;;;;450391;263;1131;-60
2022/03/15 01:43:15;;;;;;;;;;;21.10;27.50;;;;;;450441;262;1128;-60
2022/03/15 01:45:16;;;;;;;;;;;21.10;27.50;;;;;;450444;262;1144;-60
2022/03/15 01:47:19;;;;;;;;;;;21.10;27.50;;;;;;450413;263;1075;-60
2022/03/15 01:49:19;;;;;;;;;;;21.00;27.50;;;;;;450419;262;1599;-60
2022/03/15 01:51:21;;;;;;;;;;;21.00;27.60;;;;;;450367;263;1029;-60
2022/03/15 01:53:22;;;;;;;;;;;21.00;27.60;;;;;;450412;262;2155;-60
2022/03/15 01:55:23;;;;;;;;;;;21.00;27.70;;;;;;450407;263;1079;-60
2022/03/15 01:57:24;;;;;;;;;;;20.90;27.70;;;;;;450357;263;1033;-60
2022/03/15 01:59:26;;;;;;;;;;;20.90;27.70;;;;;;450516;262;1349;-59
2022/03/15 02:01:27;;;;;;;;;;;21.00;27.70;;;;;;450436;263;988;-60
2022/03/15 02:03:28;;;;;;;;;;;21.00;27.60;;;;;;450419;262;1070;-60
2022/03/15 02:05:30;;;;;;;;;;;21.00;27.70;;;;;;450414;263;1128;-60
2022/03/15 02:07:31;;;;;;;;;;;20.90;27.70;;;;;;450348;262;1142;-60
2022/03/15 02:09:32;;;;;;;;;;;21.00;27.50;;;;;;450499;262;1135;-60
2022/03/15 02:11:34;;;;;;;;;;;21.00;27.50;;;;;;450455;262;2139;-60
2022/03/15 02:13:35;;;;;;;;;;;21.00;27.60;;;;;;450441;262;1093;-60
2022/03/15 02:15:36;;;;;;;;;;;21.00;27.60;;;;;;450431;263;1241;-60
2022/03/15 02:17:38;;;;;;;;;;;20.90;27.70;;;;;;450419;262;986;-60
2022/03/15 02:19:39;;;;;;;;;;;20.70;27.90;;;;;;450348;263;1001;-60
2022/03/15 02:21:40;;;;;;;;;;;20.80;27.80;;;;;;450397;263;992;-60
2022/03/15 02:23:42;;;;;;;;;;;20.80;27.80;;;;;;450379;262;1222;-60
2022/03/15 02:25:43;;;;;;;;;;;20.90;27.70;;;;;;450495;262;984;-60
2022/03/15 02:27:44;;;;;;;;;;;21.00;27.60;;;;;;450412;262;995;-60
2022/03/15 02:29:46;;;;;;;;;;;21.00;27.60;;;;;;450540;262;1334;-60
2022/03/15 02:31:47;;;;;;;;;;;21.10;27.50;;;;;;450382;262;2211;-60
2022/03/15 02:33:48;;;;;;;;;;;21.10;27.60;;;;;;450413;262;1359;-60
2022/03/15 02:35:50;;;;;;;;;;;21.10;27.60;;;;;;450436;263;1054;-60
2022/03/15 02:37:51;;;;;;;;;;;21.00;27.70;;;;;;450427;262;1071;-60
2022/03/15 02:39:52;;;;;;;;;;;21.00;27.70;;;;;;450544;262;1039;-59
2022/03/15 02:41:54;;;;;;;;;;;21.00;27.70;;;;;;450520;262;1090;-60
2022/03/15 02:43:56;;;;;;;;;;;21.00;27.70;;;;;;450427;262;1091;-60
2022/03/15 02:45:57;;;;;;;;;;;21.00;27.70;;;;;;450452;263;1198;-60
2022/03/15 02:47:59;;;;;;;;;;;21.00;27.70;;;;;;450453;262;1085;-60
2022/03/15 02:50:00;;;;;;;;;;;21.00;27.70;;;;;;450586;262;1001;-60
2022/03/15 02:52:01;;;;;;;;;;;21.00;27.70;;;;;;450449;262;2143;-60
2022/03/15 02:54:08;;;;;;;;;;;21.00;27.80;;;;;;450508;262;1134;-60
2022/03/15 02:56:04;;;;;;;;;;;21.00;27.80;;;;;;450443;263;1498;-60
2022/03/15 02:58:05;;;;;;;;;;;21.00;27.80;;;;;;450482;262;971;-59
2022/03/15 03:00:07;;;;;;;;;;;20.90;27.90;;;;;;450540;262;1171;-60
2022/03/15 03:02:08;;;;;;;;;;;21.00;27.90;;;;;;450429;263;1061;-60
2022/03/15 03:04:10;;;;;;;;;;;21.00;27.90;;;;;;450449;263;1072;-59
2022/03/15 03:06:11;;;;;;;;;;;20.90;27.90;;;;;;450441;263;2304;-60
2022/03/15 03:08:12;;;;;;;;;;;21.00;27.90;;;;;;450612;262;1062;-60
2022/03/15 03:10:16;;;;;;;;;;;20.90;27.90;;;;;;450511;262;1132;-59
2022/03/15 03:12:15;;;;;;;;;;;21.00;27.90;;;;;;450503;262;2210;-60
2022/03/15 03:14:16;;;;;;;;;;;21.00;28.00;;;;;;450422;263;1081;-60
2022/03/15 03:16:18;;;;;;;;;;;21.00;27.90;;;;;;450434;262;1175;-60
2022/03/15 03:18:19;;;;;;;;;;;21.00;27.90;;;;;;450477;262;1028;-59
2022/03/15 03:20:21;;;;;;;;;;;20.80;28.10;;;;;;450406;263;1257;-60
2022/03/15 03:22:21;;;;;;;;;;;20.90;28.20;;;;;;450355;263;1418;-60
2022/03/15 03:24:24;;;;;;;;;;;20.90;28.10;;;;;;450408;263;1092;-60
2022/03/15 03:26:24;;;;;;;;;;;20.90;28.20;;;;;;450452;262;1510;-59
2022/03/15 03:28:27;;;;;;;;;;;20.90;28.20;;;;;;450426;263;1082;-60
2022/03/15 03:30:29;;;;;;;;;;;20.90;28.20;;;;;;450374;263;1965;-60
2022/03/15 03:32:28;;;;;;;;;;;20.90;28.10;;;;;;450408;263;2268;-61
2022/03/15 03:34:29;;;;;;;;;;;20.90;28.20;;;;;;450446;262;1073;-60
2022/03/15 03:36:32;;;;;;;;;;;20.90;28.10;;;;;;450435;262;978;-60
2022/03/15 03:38:33;;;;;;;;;;;21.00;28.00;;;;;;450383;263;1027;-59
2022/03/15 03:40:34;;;;;;;;;;;21.00;28.00;;;;;;450403;263;1071;-60
2022/03/15 03:42:36;;;;;;;;;;;20.90;28.00;;;;;;450391;263;1137;-60
2022/03/15 03:44:38;;;;;;;;;;;20.90;28.10;;;;;;450515;262;1175;-60
2022/03/15 03:46:38;;;;;;;;;;;20.90;28.10;;;;;;450534;262;1510;-60
2022/03/15 03:48:39;;;;;;;;;;;21.00;28.00;;;;;;450424;263;1168;-60
2022/03/15 03:50:42;;;;;;;;;;;21.00;28.00;;;;;;450436;262;1226;-59
2022/03/15 03:52:42;;;;;;;;;;;21.00;28.10;;;;;;450344;263;2202;-60
2022/03/15 03:54:43;;;;;;;;;;;21.00;28.10;;;;;;450415;263;1021;-60
2022/03/15 03:56:45;;;;;;;;;;;20.90;28.10;;;;;;450532;262;1190;-60
2022/03/15 03:58:46;;;;;;;;;;;21.00;28.10;;;;;;450434;263;1071;-60
2022/03/15 04:00:48;;;;;;;;;;;21.00;28.10;;;;;;450451;263;1069;-60
2022/03/15 04:02:49;;;;;;;;;;;21.00;28.00;;;;;;450403;263;1165;-60
2022/03/15 04:04:52;;;;;;;;;;;21.00;28.10;;;;;;450411;263;1022;-60
2022/03/15 04:06:52;;;;;;;;;;;21.00;28.00;;;;;;450406;263;1407;-60
2022/03/15 04:08:56;;;;;;;;;;;21.00;28.20;;;;;;450375;263;1038;-60
2022/03/15 04:10:54;;;;;;;;;;;21.00;28.20;;;;;;450324;262;1409;-62
2022/03/15 04:12:56;;;;;;;;;;;20.90;28.30;;;;;;450410;262;2211;-60
2022/03/15 04:14:58;;;;;;;;;;;20.90;28.30;;;;;;450538;262;1093;-60
2022/03/15 04:16:59;;;;;;;;;;;20.80;28.30;;;;;;450400;262;1400;-60
2022/03/15 04:19:00;;;;;;;;;;;20.90;28.30;;;;;;450395;262;1036;-60
2022/03/15 04:21:01;;;;;;;;;;;20.80;28.40;;;;;;450545;262;956;-60
2022/03/15 04:23:03;;;;;;;;;;;20.80;28.40;;;;;;450374;263;986;-60
2022/03/15 04:25:04;;;;;;;;;;;21.00;28.20;;;;;;450422;263;995;-60
2022/03/15 04:27:05;;;;;;;;;;;21.00;28.20;;;;;;450373;262;992;-59
2022/03/15 04:29:07;;;;;;;;;;;20.90;28.30;;;;;;450371;263;1170;-60
2022/03/15 04:31:08;;;;;;;;;;;20.90;28.30;;;;;;450437;262;1063;-60
2022/03/15 04:33:09;;;;;;;;;;;20.90;28.40;;;;;;450429;262;2155;-60
2022/03/15 04:35:11;;;;;;;;;;;20.90;28.40;;;;;;450456;262;1063;-60
2022/03/15 04:37:12;;;;;;;;;;;20.90;28.40;;;;;;450335;263;1532;-60
2022/03/15 04:39:13;;;;;;;;;;;20.90;28.40;;;;;;450398;262;1138;-59
2022/03/15 04:41:15;;;;;;;;;;;20.90;28.40;;;;;;450442;262;1605;-60
2022/03/15 04:43:16;;;;;;;;;;;20.90;28.30;;;;;;450427;262;1101;-60
2022/03/15 04:45:17;;;;;;;;;;;20.90;28.30;;;;;;450466;262;1077;-60
2022/03/15 04:47:19;;;;;;;;;;;20.80;28.40;;;;;;450508;262;1167;-59
2022/03/15 04:49:20;;;;;;;;;;;20.90;28.40;;;;;;450428;262;1165;-60
2022/03/15 04:51:21;;;;;;;;;;;20.90;28.40;;;;;;450406;263;1088;-60
2022/03/15 04:53:22;;;;;;;;;;;21.00;28.30;;;;;;450385;262;2202;-59
2022/03/15 04:55:24;;;;;;;;;;;21.00;28.30;;;;;;450378;263;1075;-60
2022/03/15 04:57:25;;;;;;;;;;;21.00;28.30;;;;;;450309;263;1115;-60
2022/03/15 04:59:26;;;;;;;;;;;20.90;28.50;;;;;;450355;263;1075;-60
2022/03/15 05:01:28;;;;;;;;;;;21.00;28.40;;;;;;450365;263;1077;-59
2022/03/15 05:03:29;;;;;;;;;;;20.90;28.40;;;;;;450310;262;1324;-59
2022/03/15 05:05:30;;;;;;;;;;;20.90;28.50;;;;;;450509;262;1176;-60
2022/03/15 05:07:32;;;;;;;;;;;20.90;28.50;;;;;;450480;262;995;-60
2022/03/15 05:09:33;;;;;;;;;;;20.90;28.40;;;;;;450497;262;1049;-60
2022/03/15 05:11:34;;;;;;;;;;;20.80;28.50;;;;;;450335;262;1259;-60
2022/03/15 05:13:36;;;;;;;;;;;20.90;28.40;;;;;;450361;262;2210;-60
2022/03/15 05:15:37;;;;;;;;;;;20.90;28.50;;;;;;450335;263;1067;-60
2022/03/15 05:17:38;;;;;;;;;;;21.00;28.40;;;;;;450313;262;1212;-60
2022/03/15 05:19:40;;;;;;;;;;;20.90;28.40;;;;;;450311;262;979;-60
2022/03/15 05:21:41;;;;;;;;;;;20.90;28.50;;;;;;450308;262;1061;-60
2022/03/15 05:23:42;;;;;;;;;;;20.90;28.50;;;;;;450348;262;1007;-60
2022/03/15 05:25:44;;;;;;;;;;;20.90;28.60;;;;;;450525;262;1037;-60
2022/03/15 05:27:45;;;;;;;;;;;20.90;28.60;;;;;;450348;262;1083;-60
2022/03/15 05:29:46;;;;;;;;;;;20.90;28.50;;;;;;450423;262;1063;-60
2022/03/15 05:31:47;;;;;;;;;;;20.80;28.60;;;;;;450295;262;1152;-60
2022/03/15 05:33:49;;;;;;;;;;;20.80;28.70;;;;;;450187;263;2235;-60
2022/03/15 05:35:50;;;;;;;;;;;20.80;28.60;;;;;;450294;263;1073;-60
2022/03/15 05:37:51;;;;;;;;;;;20.90;28.60;;;;;;450258;262;1123;-60
2022/03/15 05:39:53;;;;;;;;;;;20.80;28.60;;;;;;450343;262;1069;-60
2022/03/15 05:41:54;;;;;;;;;;;20.90;28.60;;;;;;450188;263;1129;-60
2022/03/15 05:43:55;;;;;;;;;;;21.00;28.50;;;;;;450249;262;1156;-60
2022/03/15 05:45:57;;;;;;;;;;;20.90;28.60;;;;;;450170;262;1242;-60
2022/03/15 05:47:58;;;;;;;;;;;21.00;28.50;;;;;;450171;262;1222;-60
2022/03/15 05:50:00;;;;;;;;;;;21.00;28.60;;;;;;450049;263;1301;-60
2022/03/15 05:52:01;;;;;;;;;;;21.00;28.60;;;;;;450238;262;1999;-60
2022/03/15 05:54:04;;;;;;;;;;;21.00;28.60;;;;;;450227;262;2131;-60
2022/03/15 05:56:03;;;;;;;;;;;21.00;28.60;;;;;;450294;262;2426;-60
2022/03/15 05:58:05;;;;;;;;;;;20.90;28.60;;;;;;450150;263;1047;-60
2022/03/15 06:00:06;;;;;;;;;;;20.90;28.60;;;;;;450278;262;1097;-60
2022/03/15 06:02:07;;;;;;;;;;;20.90;28.70;;;;;;450216;263;1200;-60
2022/03/15 06:04:10;;;;;;;;;;;20.90;28.80;;;;;;450250;262;1177;-60
2022/03/15 06:06:10;;;;;;;;;;;20.90;28.70;;;;;;450203;263;2030;-60
2022/03/15 06:08:11;;;;;;;;;;;20.90;28.80;;;;;;450201;262;1011;-60
2022/03/15 06:10:12;;;;;;;;;;;21.00;28.70;;;;;;450186;263;1015;-60
2022/03/15 06:12:14;;;;;;;;;;;21.00;28.60;;;;;;450143;263;1093;-60
2022/03/15 06:14:15;;;;;;;;;;;21.00;28.70;;;;;;450221;263;2206;-60
2022/03/15 06:16:17;;;;;;;;;;;20.90;28.70;;;;;;450173;263;1094;-60
2022/03/15 06:18:18;;;;;;;;;;;20.90;28.70;;;;;;450159;262;1305;-60
2022/03/15 06:20:19;;;;;;;;;;;20.90;28.70;;;;;;450103;262;998;-60
2022/03/15 06:22:20;;;;;;;;;;;20.90;28.80;;;;;;450080;262;1070;-59
2022/03/15 06:24:23;;;;;;;;;;;20.90;28.80;;;;;;450116;262;1386;-60
2022/03/15 06:26:23;;;;;;;;;;;20.90;28.80;;;;;;449982;263;2287;-60
2022/03/15 06:28:25;;;;;;;;;;;20.80;28.70;;;;;;450038;263;1134;-60
2022/03/15 06:30:26;;;;;;;;;;;20.80;28.80;;;;;;450059;262;1070;-60
2022/03/15 06:32:27;;;;;;;;;;;20.90;28.80;;;;;;450025;262;1167;-60
2022/03/15 06:34:28;;;;;;;;;;;20.90;28.90;;;;;;450022;262;2199;-60
2022/03/15 06:36:30;;;;;;;;;;;20.80;28.90;;;;;;449972;262;1101;-60
2022/03/15 06:38:31;;;;;;;;;;;20.80;28.80;;;;;;450070;262;1074;-60
2022/03/15 06:40:35;;;;;;;;;;;20.60;29.10;;;;;;449967;262;1201;-60
2022/03/15 06:42:34;;;;;;;;;;;20.60;29.10;;;;;;450066;262;1972;-60
2022/03/15 06:44:36;;;;;;;;;;;20.50;29.20;;;;;;450076;262;1059;-60
2022/03/15 06:46:36;;;;;;;;;;;20.60;29.10;;;;;;450041;262;1324;-60
2022/03/15 06:48:38;;;;;;;;;;;20.60;29.20;;;;;;449965;263;1330;-60
2022/03/15 06:50:40;;;;;;;;;;;20.70;29.20;;;;;;450000;262;1227;-60
2022/03/15 06:52:40;;;;;;;;;;;20.60;29.30;;;;;;449895;263;2190;-60
2022/03/15 06:54:42;;;;;;;;;;;20.60;29.20;;;;;;449761;262;2147;-59
2022/03/15 06:56:43;;;;;;;;;;;20.60;29.20;;;;;;449768;263;1104;-60
2022/03/15 06:58:44;;;;;;;;;;;20.70;29.20;;;;;;449886;262;1003;-60
2022/03/15 07:00:47;;;;;;;;;;;20.70;29.20;;;;;;449840;262;1129;-60
2022/03/15 07:02:47;;;;;;;;;;;20.70;29.20;;;;;;449833;263;2331;-60
2022/03/15 07:04:48;;;;;;;;;;;20.70;29.30;;;;;;449764;262;1238;-60
2022/03/15 07:06:49;;;;;;;;;;;20.60;29.30;;;;;;449798;262;1005;-60
2022/03/15 07:08:51;;;;;;;;;;;20.70;29.30;;;;;;449806;263;1073;-60
2022/03/15 07:10:53;;;;;;;;;;;20.70;29.30;;;;;;449824;263;1148;-60
2022/03/15 07:12:53;;;;;;;;;;;20.70;29.30;;;;;;449747;263;1075;-60
2022/03/15 07:14:55;;;;;;;;;;;20.60;29.50;;;;;;449805;263;2210;-61
2022/03/15 07:16:56;;;;;;;;;;;20.60;29.40;;;;;;449850;262;1197;-60
2022/03/15 07:18:58;;;;;;;;;;;20.70;29.40;;;;;;449633;262;1272;-60
2022/03/15 07:20:59;;;;;;;;;;;20.70;29.40;;;;;;449348;263;1142;-60
2022/03/15 07:23:00;;;;;;;;;;;20.60;29.50;;;;;;449480;262;1070;-60
2022/03/15 07:25:02;;;;;;;;;;;20.60;29.50;;;;;;449728;262;1100;-60
2022/03/15 07:27:03;;;;;;;;;;;20.60;29.50;;;;;;449745;262;1076;-60
2022/03/15 07:29:04;;;;;;;;;;;20.60;29.50;;;;;;449726;262;1047;-60
2022/03/15 07:31:06;;;;;;;;;;;20.60;29.60;;;;;;449781;263;1119;-60
2022/03/15 07:33:07;;;;;;;;;;;20.60;29.60;;;;;;449701;262;1050;-60
2022/03/15 07:35:09;;;;;;;;;;;20.60;29.60;;;;;;449720;263;2144;-60
2022/03/15 07:37:10;;;;;;;;;;;20.80;29.50;;;;;;449653;263;1073;-60
2022/03/15 07:39:11;;;;;;;;;;;20.90;29.30;;;;;;449578;263;1233;-60
2022/03/15 07:41:12;;;;;;;;;;;21.00;29.20;;;;;;449647;262;1141;-60
2022/03/15 07:43:14;;;;;;;;;;;21.10;29.00;;;;;;449622;262;1104;-60
2022/03/15 07:45:15;;;;;;;;;;;21.20;29.00;;;;;;449643;262;1089;-60
2022/03/15 07:47:16;;;;;;;;;;;21.20;29.10;;;;;;449472;262;1093;-60
2022/03/15 07:49:18;;;;;;;;;;;21.30;29.00;;;;;;449635;262;1311;-60
2022/03/15 07:51:19;;;;;;;;;;;21.30;29.00;;;;;;449550;263;1076;-60
2022/03/15 07:53:20;;;;;;;;;;;21.40;28.90;;;;;;449491;262;1074;-60
2022/03/15 07:55:22;;;;;;;;;;;21.40;28.90;;;;;;449487;263;2211;-60
2022/03/15 07:57:23;;;;;;;;;;;21.50;28.90;;;;;;449508;262;1113;-60
2022/03/15 07:59:24;;;;;;;;;;;21.50;28.80;;;;;;448184;262;1309;-60
2022/03/15 08:01:26;;;;;;;;;;;21.60;28.90;;;;;;448264;262;1319;-60
2022/03/15 08:03:27;;;;;;;;;;;21.50;29.00;;;;;;448146;262;1130;-59
2022/03/15 08:05:28;;;;;;;;;;;21.40;29.10;;;;;;448190;262;1332;-60
2022/03/15 08:07:30;;;;;;;;;;;21.30;29.10;;;;;;448140;262;1379;-60
2022/03/15 08:09:31;;;;;;;;;;;21.30;29.30;;;;;;448044;262;1389;-60
2022/03/15 08:11:33;;;;;;;;;;;21.10;29.40;;;;;;448332;263;1168;-60
2022/03/15 08:13:34;;;;;;;;;;;21.00;29.60;;;;;;448202;263;1174;-60
2022/03/15 08:15:36;;;;;;;;;;;20.80;29.70;;;;;;448441;262;2206;-60
2022/03/15 08:17:37;;;;;;;;;;;20.80;29.80;;;;;;448274;262;1240;-60
2022/03/15 08:19:38;;;;;;;;;;;20.70;29.90;;;;;;448234;262;1164;-60
2022/03/15 08:21:40;;;;;;;;;;;20.80;29.90;;;;;;448095;263;1183;-60
2022/03/15 08:23:41;;;;;;;;;;;20.60;30.00;;;;;;447825;263;1161;-60
2022/03/15 08:25:42;;;;;;;;;;;20.70;29.90;;;;;;447884;262;1110;-60
2022/03/15 08:27:44;;;;;;;;;;;20.80;29.90;;;;;;447953;262;1299;-60
2022/03/15 08:29:45;;;;;;;;;;;20.80;29.80;;;;;;448030;262;1133;-59
2022/03/15 08:31:46;;;;;;;;;;;20.80;29.90;;;;;;448129;262;1114;-60
2022/03/15 08:33:48;;;;;;;;;;;20.80;29.80;;;;;;448051;262;1402;-60
2022/03/15 08:35:49;;;;;;;;;;;20.80;29.90;;;;;;448181;262;1320;-60
2022/03/15 08:37:51;;;;;;;;;;;20.80;29.90;;;;;;448230;262;1236;-60
2022/03/15 08:39:52;;;;;;;;;;;20.80;30.00;;;;;;448689;263;2250;-60
2022/03/15 08:41:53;;;;;;;;;;;20.80;30.00;;;;;;448877;262;1213;-59
2022/03/15 08:43:54;;;;;;;;;;;20.70;30.00;;;;;;448575;263;1235;-59
2022/03/15 08:45:56;;;;;;;;;;;20.80;30.00;;;;;;448557;263;1263;-60
2022/03/15 08:47:57;;;;;;;;;;;20.90;30.00;;;;;;448531;263;1263;-60
2022/03/15 08:49:58;;;;;;;;;;;20.80;30.00;;;;;;448644;262;973;-60
2022/03/15 08:52:00;;;;;;;;;;;20.80;29.90;;;;;;447710;263;1101;-60
2022/03/15 08:54:01;;;;;;;;;;;20.80;30.00;;;;;;447993;263;2206;-60
2022/03/15 08:56:02;;;;;;;;;;;20.80;30.00;;;;;;448219;262;825;-60
2022/03/15 08:58:03;;;;;;;;;;;20.70;30.00;;;;;;448251;262;812;-60
2022/03/15 09:00:05;;;;;;;;;;;20.80;30.00;;;;;;448296;262;844;-60
2022/03/15 09:02:08;;;;;;;;;;;20.80;30.00;;;;;;448233;263;1167;-60
2022/03/15 09:04:08;;;;;;;;;;;20.80;30.00;;;;;;447942;263;2694;-60
2022/03/15 09:06:09;;;;;;;;;;;20.90;30.00;;;;;;448062;262;1169;-60
2022/03/15 09:08:10;;;;;;;;;;;20.80;30.00;;;;;;448148;262;1254;-60
2022/03/15 09:10:11;;;;;;;;;;;20.80;30.00;;;;;;447833;263;846;-60
2022/03/15 09:12:13;;;;;;;;;;;20.90;30.00;;;;;;448033;262;1260;-60
2022/03/15 09:14:14;;;;;;;;;;;20.90;29.90;;;;;;448211;262;2198;-60
2022/03/15 09:16:15;;;;;;;;;;;20.90;30.00;;;;;;448222;262;954;-60
2022/03/15 09:18:17;;;;;;;;;;;20.90;30.00;;;;;;447772;263;897;-60
2022/03/15 09:20:18;;;;;;;;;;;20.90;30.00;;;;;;448158;262;911;-61
2022/03/15 09:22:19;;;;;;;;;;;20.80;30.00;;;;;;447771;262;1106;-60
2022/03/15 09:24:21;;;;;;;;;;;20.80;30.00;;;;;;448255;262;1090;-60
2022/03/15 09:26:22;;;;;;;;;;;20.90;30.00;;;;;;448721;262;977;-60
2022/03/15 09:28:23;;;;;;;;;;;20.80;30.00;;;;;;447814;263;847;-60
2022/03/15 09:30:25;;;;;;;;;;;20.90;30.00;;;;;;447880;263;890;-60
2022/03/15 09:32:26;;;;;;;;;;;20.90;30.00;;;;;;448061;263;1031;-59
2022/03/15 09:34:27;;;;;;;;;;;20.90;30.00;;;;;;448193;262;2206;-60
2022/03/15 09:36:29;;;;;;;;;;;20.90;30.00;;;;;;447829;263;1265;-60
2022/03/15 09:38:30;;;;;;;;;;;21.00;30.00;;;;;;447664;263;885;-61
2022/03/15 09:40:31;;;;;;;;;;;21.00;29.90;;;;;;447773;263;930;-60
2022/03/15 09:42:32;;;;;;;;;;;21.30;29.70;;;;;;447784;263;919;-60
2022/03/15 09:44:34;;;;;;;;;;;21.40;29.60;;;;;;448166;262;835;-61
2022/03/15 09:46:35;;;;;;;;;;;21.50;29.40;;;;;;448268;262;833;-60
2022/03/15 09:48:36;;;;;;;;;;;21.60;29.30;;;;;;448396;262;927;-60
2022/03/15 09:50:38;;;;;;;;;;;21.60;29.20;;;;;;448695;262;1526;-60
2022/03/15 09:52:40;;;;;;;;;;;21.70;29.20;;;;;;448408;262;1104;-60
2022/03/15 09:54:40;;;;;;;;;;;21.70;29.20;;;;;;448529;262;2225;-61
2022/03/15 09:56:42;;;;;;;;;;;21.70;29.10;;;;;;448267;262;947;-60
2022/03/15 09:58:43;;;;;;;;;;;21.70;29.20;;;;;;448272;263;906;-59
2022/03/15 10:00:44;;;;;;;;;;;21.70;29.20;;;;;;448707;263;955;-60
2022/03/15 10:02:46;;;;;;;;;;;21.70;29.20;;;;;;448517;263;979;-61
2022/03/15 10:04:47;;;;;;;;;;;21.60;29.40;;;;;;448930;262;982;-60
2022/03/15 10:06:48;;;;;;;;;;;21.50;29.50;;;;;;448684;262;1089;-59
2022/03/15 10:08:50;;;;;;;;;;;21.50;29.60;;;;;;448285;262;1036;-60
2022/03/15 10:10:51;;;;;;;;;;;21.50;29.60;;;;;;448295;262;1018;-60
2022/03/15 10:12:52;;;;;;;;;;;21.30;29.70;;;;;;448802;262;963;-60
2022/03/15 10:14:56;;;;;;;;;;;21.20;29.90;;;;;;448490;263;2215;-60
2022/03/15 10:16:55;;;;;;;;;;;21.10;30.00;;;;;;448478;262;1308;-60
2022/03/15 10:18:57;;;;;;;;;;;21.00;30.00;;;;;;448671;263;1135;-60
2022/03/15 10:20:57;;;;;;;;;;;20.90;30.00;;;;;;449054;262;2105;-60
2022/03/15 10:22:59;;;;;;;;;;;20.90;30.00;;;;;;448581;262;1200;-59
2022/03/15 10:25:01;;;;;;;;;;;20.90;30.00;;;;;;449026;262;1156;-60
2022/03/15 10:27:02;;;;;;;;;;;21.00;29.90;;;;;;448710;263;2077;-60
2022/03/15 10:29:03;;;;;;;;;;;21.00;30.00;;;;;;448805;263;1141;-60
2022/03/15 10:31:06;;;;;;;;;;;21.00;30.00;;;;;;449056;262;973;-60
2022/03/15 10:33:06;;;;;;;;;;;21.00;30.00;;;;;;448166;262;2159;-61
2022/03/15 10:35:08;;;;;;;;;;;21.00;29.90;;;;;;447778;263;2214;-61
2022/03/15 10:37:09;;;;;;;;;;;21.00;30.00;;;;;;448058;263;1830;-60
2022/03/15 10:39:10;;;;;;;;;;;21.00;29.90;;;;;;448121;262;826;-60
2022/03/15 10:41:11;;;;;;;;;;;21.10;29.80;;;;;;447879;263;946;-61
2022/03/15 10:43:12;;;;;;;;;;;21.10;29.80;;;;;;447946;263;886;-60
2022/03/15 10:45:14;;;;;;;;;;;21.10;29.80;;;;;;447947;263;892;-60
2022/03/15 10:47:17;;;;;;;;;;;21.10;29.90;;;;;;447876;263;1478;-60
2022/03/15 10:49:16;;;;;;;;;;;21.00;29.90;;;;;;448365;262;2200;-60
2022/03/15 10:51:18;;;;;;;;;;;21.00;29.90;;;;;;447888;263;947;-60
2022/03/15 10:53:20;;;;;;;;;;;21.00;29.90;;;;;;447967;262;1269;-60
2022/03/15 10:55:22;;;;;;;;;;;21.00;29.90;;;;;;448194;262;2481;-61
2022/03/15 10:57:22;;;;;;;;;;;21.00;29.90;;;;;;447820;263;1885;-60
2022/03/15 10:59:23;;;;;;;;;;;21.00;29.90;;;;;;448211;262;780;-60
2022/03/15 11:01:24;;;;;;;;;;;20.90;30.00;;;;;;448195;262;977;-61
2022/03/15 11:03:29;;;;;;;;;;;20.90;30.00;;;;;;447901;263;821;-60
2022/03/15 11:05:28;;;;;;;;;;;20.90;30.00;;;;;;448380;262;2589;-61
2022/03/15 11:07:29;;;;;;;;;;;20.80;30.10;;;;;;447873;263;1089;-60
2022/03/15 11:09:31;;;;;;;;;;;20.80;30.10;;;;;;447913;263;893;-60
2022/03/15 11:11:36;;;;;;;;;;;20.90;30.00;;;;;;448221;262;864;-60
2022/03/15 11:13:33;;;;;;;;;;;21.00;30.00;;;;;;447836;263;2336;-60
2022/03/15 11:15:36;;;;;;;;;;;21.00;30.00;;;;;;448286;262;2202;-60
2022/03/15 11:17:36;;;;;;;;;;;21.00;30.00;;;;;;447965;263;1821;-60
2022/03/15 11:19:37;;;;;;;;;;;21.00;29.90;;;;;;448262;262;1071;-61
2022/03/15 11:21:39;;;;;;;;;;;20.90;30.00;;;;;;448381;262;952;-60
2022/03/15 11:23:39;;;;;;;;;;;20.90;30.00;;;;;;447758;262;1135;-60
2022/03/15 11:25:41;;;;;;;;;;;21.00;30.10;;;;;;447514;263;874;-60
2022/03/15 11:27:42;;;;;;;;;;;20.90;30.10;;;;;;447810;263;897;-60
2022/03/15 11:29:44;;;;;;;;;;;21.00;30.10;;;;;;448244;262;909;-60
2022/03/15 11:31:45;;;;;;;;;;;21.00;30.10;;;;;;448236;262;1814;-60
2022/03/15 11:33:47;;;;;;;;;;;21.00;30.20;;;;;;448349;262;793;-60
2022/03/15 11:35:48;;;;;;;;;;;21.00;30.10;;;;;;448266;262;2206;-60
2022/03/15 11:37:51;;;;;;;;;;;21.10;30.00;;;;;;447565;263;1157;-61
2022/03/15 11:39:51;;;;;;;;;;;21.00;30.10;;;;;;448360;262;1925;-61
2022/03/15 11:41:52;;;;;;;;;;;21.10;30.00;;;;;;448091;262;1354;-60
2022/03/15 11:44:00;;;;;;;;;;;21.00;30.10;;;;;;447850;263;860;-60
2022/03/15 11:45:56;;;;;;;;;;;21.20;30.00;;;;;;448303;262;1871;-59
2022/03/15 11:47:56;;;;;;;;;;;21.30;29.90;;;;;;448230;262;1211;-60
2022/03/15 11:49:58;;;;;;;;;;;21.30;29.90;;;;;;447704;263;1128;-61
2022/03/15 11:52:01;;;;;;;;;;;21.50;29.80;;;;;;447909;262;1010;-60
2022/03/15 11:54:01;;;;;;;;;;;21.60;29.70;;;;;;447508;262;2421;-60
2022/03/15 11:56:02;;;;;;;;;;;21.70;29.60;;;;;;447270;263;2206;-61